Time;durP1;ratioP1;P1;durP2;ratioP2;P2;SDS_P1;SDS_P2;PMS_P1;PMS_P2;Temp;Humidity;BMP_temperature;BMP_pressure;BME280_temperature;BME280_humidity;BME280_pressure;Samples;Min_cycle;Max_cycle;Signal;HPM_P1;HPM_P2
2022/07/29 00:01:08;;;;;;;1.83;0.70;;;15.90;99.90;;;;;;5038435;28;20331;-70
2022/07/29 00:03:33;;;;;;;1.35;0.60;;;15.80;99.90;;;;;;5037049;28;20207;-70
2022/07/29 00:05:59;;;;;;;2.00;0.63;;;15.90;99.90;;;;;;5040220;28;20033;-70
2022/07/29 00:08:24;;;;;;;7.68;0.73;;;15.90;99.90;;;;;;5031940;28;20041;-70
2022/07/29 00:10:50;;;;;;;0.90;0.50;;;15.80;99.90;;;;;;5031288;28;20400;-70
2022/07/29 00:13:16;;;;;;;2.90;0.50;;;15.90;99.90;;;;;;5033222;28;20208;-69
2022/07/29 00:15:41;;;;;;;1.35;0.70;;;15.90;99.90;;;;;;5034788;28;20037;-69
2022/07/29 00:18:07;;;;;;;1.08;0.52;;;15.90;99.90;;;;;;5040783;28;20032;-69
2022/07/29 00:20:33;;;;;;;1.23;0.63;;;15.90;99.90;;;;;;5032043;28;20095;-70
2022/07/29 00:22:58;;;;;;;1.97;0.67;;;15.90;99.90;;;;;;5030461;28;20049;-70
2022/07/29 00:25:24;;;;;;;1.67;0.70;;;15.90;99.90;;;;;;5038865;28;20295;-69
2022/07/29 00:27:50;;;;;;;4.78;0.57;;;15.90;99.90;;;;;;5034789;28;20299;-69
2022/07/29 00:30:15;;;;;;;1.88;0.52;;;15.90;99.90;;;;;;5036281;28;20041;-69
2022/07/29 00:32:41;;;;;;;3.35;0.65;;;15.80;99.90;;;;;;5038931;28;20142;-69
2022/07/29 00:37:51;;;;;;;1.40;0.60;;;15.90;99.90;;;;;;5042202;28;20041;-69
2022/07/29 00:40:17;;;;;;;0.45;0.30;;;15.90;99.90;;;;;;5041239;28;20055;-69
2022/07/29 00:42:47;;;;;;;2.08;0.43;;;15.90;99.90;;;;;;5039523;28;20412;-69
2022/07/29 00:45:14;;;;;;;0.70;0.30;;;15.90;99.90;;;;;;5042002;28;20045;-69
2022/07/29 00:47:39;;;;;;;3.13;0.80;;;15.90;99.90;;;;;;5043270;28;20044;-69
2022/07/29 00:50:07;;;;;;;1.88;0.70;;;15.90;99.90;;;;;;5040310;28;20034;-69
2022/07/29 00:52:35;;;;;;;1.73;0.60;;;15.90;99.90;;;;;;5046796;28;20048;-69
2022/07/29 00:55:02;;;;;;;2.00;0.52;;;15.90;99.90;;;;;;5044918;28;20060;-70
2022/07/29 00:57:27;;;;;;;1.23;0.57;;;15.90;99.90;;;;;;5042545;28;20093;-69
2022/07/29 00:59:53;;;;;;;2.58;0.50;;;15.90;99.90;;;;;;5034959;28;20056;-70
2022/07/29 01:02:19;;;;;;;2.27;0.60;;;15.90;99.90;;;;;;5044331;28;20084;-69
2022/07/29 01:04:44;;;;;;;1.80;0.80;;;15.90;99.90;;;;;;5040746;28;20882;-69
2022/07/29 01:07:10;;;;;;;0.88;0.43;;;15.90;99.90;;;;;;5038751;28;20299;-69
2022/07/29 01:09:37;;;;;;;1.90;0.80;;;15.80;99.90;;;;;;5040773;28;20060;-69
2022/07/29 01:12:04;;;;;;;1.58;0.50;;;15.80;99.90;;;;;;5040592;28;20942;-69
2022/07/29 01:14:31;;;;;;;2.42;0.65;;;15.80;99.90;;;;;;5041370;28;20040;-69
2022/07/29 01:17:09;;;;;;;3.15;0.65;;;15.80;99.90;;;;;;5040925;28;20037;-70
2022/07/29 01:20:12;;;;;;;2.35;0.90;;;15.80;99.90;;;;;;5041323;28;20116;-70
2022/07/29 01:23:07;;;;;;;2.00;0.80;;;15.80;99.90;;;;;;5036446;28;20041;-70
2022/07/29 01:25:53;;;;;;;1.30;0.60;;;15.80;99.90;;;;;;5038671;28;20501;-70
2022/07/29 01:28:40;;;;;;;1.02;0.47;;;15.80;99.90;;;;;;5036709;28;20088;-69
2022/07/29 01:31:08;;;;;;;2.20;0.90;;;15.80;99.90;;;;;;5042139;28;20371;-70
2022/07/29 01:33:49;;;;;;;3.70;0.75;;;15.70;99.90;;;;;;5039472;28;20044;-69
2022/07/29 01:36:25;;;;;;;2.63;1.23;;;15.80;99.90;;;;;;5039606;28;20048;-70
2022/07/29 01:39:09;;;;;;;1.10;0.40;;;15.70;99.90;;;;;;5039923;28;20674;-70
2022/07/29 01:41:39;;;;;;;0.95;0.60;;;15.70;99.90;;;;;;5036410;28;20029;-69
2022/07/29 01:44:24;;;;;;;1.20;0.60;;;15.70;99.90;;;;;;5036438;28;20033;-70
2022/07/29 01:46:55;;;;;;;3.28;0.80;;;15.70;99.90;;;;;;5038361;28;20033;-71
2022/07/29 01:49:35;;;;;;;1.88;0.70;;;15.70;99.90;;;;;;5043939;28;20049;-69
2022/07/29 01:52:07;;;;;;;1.05;0.65;;;15.70;99.90;;;;;;5046269;28;20044;-70
2022/07/29 01:54:43;;;;;;;2.97;0.70;;;15.70;99.90;;;;;;5042750;28;20041;-70
2022/07/29 01:57:13;;;;;;;1.67;0.80;;;15.70;99.90;;;;;;5040551;28;20048;-72
2022/07/29 01:59:39;;;;;;;1.35;0.70;;;15.70;99.90;;;;;;5031580;28;20083;-70
2022/07/29 02:02:08;;;;;;;2.58;0.70;;;15.70;99.90;;;;;;5037486;28;20440;-69
2022/07/29 02:04:36;;;;;;;3.08;0.80;;;15.70;99.90;;;;;;5038735;28;20055;-69
2022/07/29 02:07:06;;;;;;;2.30;0.75;;;15.70;99.90;;;;;;5037862;28;20090;-70
2022/07/29 02:09:35;;;;;;;1.85;0.85;;;15.70;99.90;;;;;;5039517;28;20116;-70
2022/07/29 02:12:03;;;;;;;1.73;0.90;;;15.70;99.90;;;;;;5054220;28;20048;-69
2022/07/29 02:14:33;;;;;;;1.85;0.90;;;15.70;99.90;;;;;;5039083;28;20072;-70
2022/07/29 02:17:00;;;;;;;3.72;1.00;;;15.70;99.90;;;;;;5036650;28;20512;-70
2022/07/29 02:19:27;;;;;;;3.53;0.93;;;15.70;99.90;;;;;;5043360;28;20072;-69
2022/07/29 02:21:55;;;;;;;5.10;0.80;;;15.70;99.90;;;;;;5040119;28;20049;-69
2022/07/29 02:24:23;;;;;;;1.23;0.68;;;15.70;99.90;;;;;;5036965;28;20090;-69
2022/07/29 02:26:51;;;;;;;3.42;0.80;;;15.70;99.90;;;;;;5033065;28;20052;-70
2022/07/29 02:29:19;;;;;;;2.35;0.80;;;15.70;99.90;;;;;;5038965;28;20052;-69
2022/07/29 02:31:47;;;;;;;2.70;1.02;;;15.70;99.90;;;;;;5055396;28;20065;-69
2022/07/29 02:34:15;;;;;;;1.73;0.73;;;15.70;99.90;;;;;;5035048;28;20067;-69
2022/07/29 02:36:44;;;;;;;1.58;0.60;;;15.70;99.90;;;;;;5017176;28;20273;-69
2022/07/29 02:39:12;;;;;;;1.42;0.73;;;15.70;99.90;;;;;;5043106;28;20044;-69
2022/07/29 02:41:43;;;;;;;1.85;0.90;;;15.70;99.90;;;;;;5041470;28;20040;-69
2022/07/29 02:44:12;;;;;;;3.63;1.20;;;15.70;99.90;;;;;;5029223;28;20043;-69
2022/07/29 02:46:45;;;;;;;3.13;0.60;;;15.70;99.90;;;;;;5033975;28;20051;-69
2022/07/29 02:49:16;;;;;;;2.00;0.85;;;15.70;99.90;;;;;;5041123;28;20085;-69
2022/07/29 02:51:49;;;;;;;2.65;0.77;;;15.70;99.90;;;;;;5033628;28;20052;-70
2022/07/29 02:54:44;;;;;;;2.45;0.70;;;15.70;99.90;;;;;;5030036;28;20033;-69
2022/07/29 02:57:18;;;;;;;3.22;0.73;;;15.70;99.90;;;;;;5032728;28;20041;-69
2022/07/29 02:59:47;;;;;;;2.65;0.80;;;15.70;99.90;;;;;;5036127;28;20033;-69
2022/07/29 03:02:16;;;;;;;2.95;0.98;;;15.70;99.90;;;;;;5029564;28;20398;-69
2022/07/29 03:04:43;;;;;;;1.00;0.68;;;15.70;99.90;;;;;;5032437;28;20056;-69
2022/07/29 03:07:11;;;;;;;3.88;1.00;;;15.70;99.90;;;;;;5021576;28;20474;-69
2022/07/29 03:09:40;;;;;;;2.03;1.10;;;15.70;99.90;;;;;;5040640;28;20568;-69
2022/07/29 03:12:07;;;;;;;2.67;1.00;;;15.70;99.90;;;;;;5042842;28;20142;-70
2022/07/29 03:14:34;;;;;;;3.65;0.70;;;15.70;99.90;;;;;;5036681;28;20456;-70
2022/07/29 03:17:00;;;;;;;2.72;1.00;;;15.60;99.90;;;;;;5045597;28;20265;-70
2022/07/29 03:19:26;;;;;;;2.83;1.00;;;15.60;99.90;;;;;;5046624;28;20037;-70
2022/07/29 03:21:52;;;;;;;2.88;1.33;;;15.60;99.90;;;;;;5036050;28;20320;-69
2022/07/29 03:24:32;;;;;;;2.08;0.93;;;15.60;99.90;;;;;;5028123;28;20040;-69
2022/07/29 03:26:58;;;;;;;3.70;0.80;;;15.60;99.90;;;;;;5041960;28;20145;-69
2022/07/29 03:29:24;;;;;;;1.95;0.80;;;15.60;99.90;;;;;;5043991;28;20115;-69
2022/07/29 03:31:50;;;;;;;2.33;0.77;;;15.60;99.90;;;;;;5043092;28;20577;-70
2022/07/29 03:34:16;;;;;;;2.67;0.68;;;15.60;99.90;;;;;;5038234;28;20047;-69
2022/07/29 03:36:41;;;;;;;2.90;0.70;;;15.60;99.90;;;;;;5040427;28;20060;-69
2022/07/29 03:39:11;;;;;;;3.45;1.33;;;15.60;99.90;;;;;;5030021;28;20038;-70
2022/07/29 03:41:41;;;;;;;2.55;0.60;;;15.60;99.90;;;;;;5021978;28;20049;-70
2022/07/29 03:44:08;;;;;;;1.85;0.82;;;15.60;99.90;;;;;;5018088;28;20037;-69
2022/07/29 03:46:36;;;;;;;1.88;0.85;;;15.60;99.90;;;;;;5035815;28;20106;-69
2022/07/29 03:49:04;;;;;;;3.75;0.77;;;15.60;99.90;;;;;;5037685;28;20040;-69
2022/07/29 03:51:30;;;;;;;1.25;0.70;;;15.50;99.90;;;;;;5042665;28;20036;-69
2022/07/29 03:53:56;;;;;;;3.88;0.88;;;15.60;99.90;;;;;;5039007;28;20053;-69
2022/07/29 03:56:23;;;;;;;1.40;0.63;;;15.60;99.90;;;;;;5033996;28;20117;-69
2022/07/29 03:58:53;;;;;;;1.83;0.80;;;15.60;99.90;;;;;;5029441;28;20124;-69
2022/07/29 04:01:19;;;;;;;3.30;0.80;;;15.60;99.90;;;;;;5032638;28;20350;-69
2022/07/29 04:03:45;;;;;;;1.58;0.80;;;15.60;99.90;;;;;;5031177;28;20052;-69
2022/07/29 04:06:11;;;;;;;2.65;0.90;;;15.60;99.90;;;;;;5027952;28;20040;-69
2022/07/29 04:08:37;;;;;;;2.20;0.70;;;15.60;99.90;;;;;;5029365;28;20110;-70
2022/07/29 04:11:04;;;;;;;3.92;0.80;;;15.60;99.90;;;;;;5045574;28;20045;-69
2022/07/29 04:13:31;;;;;;;2.00;0.60;;;15.60;99.90;;;;;;5043008;28;20041;-69
2022/07/29 04:15:57;;;;;;;2.40;0.75;;;15.60;99.90;;;;;;5047253;28;20305;-70
2022/07/29 04:18:23;;;;;;;2.03;0.60;;;15.50;99.90;;;;;;5041268;28;20313;-70
2022/07/29 04:20:48;;;;;;;1.70;0.68;;;15.50;99.90;;;;;;5039159;28;20119;-69
2022/07/29 04:23:15;;;;;;;3.22;0.73;;;15.50;99.90;;;;;;5039775;28;20123;-69
2022/07/29 04:25:41;;;;;;;1.67;0.82;;;15.60;99.90;;;;;;5041642;28;20049;-69
2022/07/29 04:28:08;;;;;;;2.35;0.70;;;15.60;99.90;;;;;;5044892;28;20052;-69
2022/07/29 04:30:35;;;;;;;2.55;0.63;;;15.50;99.90;;;;;;5049770;28;20036;-69
2022/07/29 04:33:05;;;;;;;3.40;0.60;;;15.60;99.90;;;;;;5035364;28;20394;-69
2022/07/29 04:35:34;;;;;;;4.60;0.98;;;15.60;99.90;;;;;;5039889;28;20044;-69
2022/07/29 04:38:00;;;;;;;0.98;0.50;;;15.50;99.90;;;;;;5041038;28;20110;-69
2022/07/29 04:40:25;;;;;;;1.85;1.13;;;15.50;99.90;;;;;;5046772;28;20442;-70
2022/07/29 04:42:51;;;;;;;2.13;0.80;;;15.50;99.90;;;;;;5035668;28;20116;-70
2022/07/29 04:45:17;;;;;;;1.43;0.67;;;15.60;99.90;;;;;;5039000;28;20382;-69
2022/07/29 04:47:42;;;;;;;5.75;0.95;;;15.60;99.90;;;;;;5038547;28;20402;-69
2022/07/29 04:50:09;;;;;;;1.67;0.75;;;15.50;99.90;;;;;;5037630;28;20185;-69
2022/07/29 04:52:35;;;;;;;3.17;0.80;;;15.60;99.90;;;;;;5040283;28;20048;-69
2022/07/29 04:55:01;;;;;;;2.80;0.80;;;15.60;99.90;;;;;;5044930;28;20040;-69
2022/07/29 04:57:27;;;;;;;1.40;0.70;;;15.60;99.90;;;;;;5040443;28;20035;-69
2022/07/29 04:59:52;;;;;;;1.58;0.70;;;15.50;99.90;;;;;;5032646;28;20041;-70
2022/07/29 05:02:18;;;;;;;1.70;0.95;;;15.60;99.90;;;;;;5034853;28;20111;-70
2022/07/29 05:04:44;;;;;;;2.28;0.88;;;15.60;99.90;;;;;;5039403;28;20052;-69
2022/07/29 05:07:09;;;;;;;1.35;0.70;;;15.50;99.90;;;;;;5030014;28;20077;-69
2022/07/29 05:09:35;;;;;;;1.50;0.80;;;15.60;99.90;;;;;;5025210;28;20045;-69
2022/07/29 05:12:01;;;;;;;4.03;0.97;;;15.60;99.90;;;;;;5041537;28;20896;-69
2022/07/29 05:14:26;;;;;;;3.15;0.80;;;15.60;99.90;;;;;;5056666;28;20358;-69
2022/07/29 05:16:52;;;;;;;2.23;0.87;;;15.60;99.90;;;;;;5040151;28;20473;-69
2022/07/29 05:19:18;;;;;;;2.72;0.70;;;15.60;99.90;;;;;;5041612;28;21354;-69
2022/07/29 05:21:47;;;;;;;2.45;0.85;;;15.60;99.90;;;;;;5036697;28;20040;-69
2022/07/29 05:24:13;;;;;;;1.50;0.80;;;15.60;99.90;;;;;;5036938;28;20456;-69
2022/07/29 05:26:39;;;;;;;4.45;1.08;;;15.60;99.90;;;;;;5045213;28;20146;-69
2022/07/29 05:29:04;;;;;;;3.33;0.80;;;15.60;99.90;;;;;;5037542;28;20116;-69
2022/07/29 05:31:30;;;;;;;2.05;0.80;;;15.60;99.90;;;;;;5041243;28;20047;-70
2022/07/29 05:33:56;;;;;;;2.92;0.75;;;15.70;99.90;;;;;;5036593;28;20045;-70
2022/07/29 05:36:21;;;;;;;1.55;0.60;;;15.70;99.90;;;;;;5045148;28;20131;-69
2022/07/29 05:38:47;;;;;;;2.88;0.80;;;15.70;99.90;;;;;;5045627;28;20482;-69
2022/07/29 05:41:13;;;;;;;1.27;0.57;;;15.70;99.90;;;;;;5042712;28;20059;-69
2022/07/29 05:43:38;;;;;;;5.07;0.80;;;15.70;99.90;;;;;;5020433;28;20124;-69
2022/07/29 05:46:04;;;;;;;1.00;0.63;;;15.70;99.90;;;;;;5042237;28;20405;-69
2022/07/29 05:48:29;;;;;;;5.35;0.88;;;15.70;99.90;;;;;;5037134;28;20458;-69
2022/07/29 05:50:55;;;;;;;2.17;0.93;;;15.70;99.90;;;;;;5035499;28;20114;-70
2022/07/29 05:53:21;;;;;;;1.35;0.90;;;15.80;99.90;;;;;;5031294;28;20052;-69
2022/07/29 05:55:51;;;;;;;2.53;1.08;;;15.70;99.90;;;;;;5033136;28;20966;-70
2022/07/29 05:58:17;;;;;;;1.13;0.70;;;15.80;99.90;;;;;;5040915;28;20090;-69
2022/07/29 06:00:43;;;;;;;1.83;0.80;;;15.80;99.90;;;;;;5037599;28;20069;-71
2022/07/29 06:03:09;;;;;;;3.65;0.90;;;15.80;99.90;;;;;;5044923;28;20515;-71
2022/07/29 06:05:35;;;;;;;2.25;1.10;;;15.80;99.90;;;;;;5034968;28;20084;-71
2022/07/29 06:08:01;;;;;;;5.43;0.80;;;15.80;99.90;;;;;;5040703;28;20131;-71
2022/07/29 06:10:26;;;;;;;2.15;0.80;;;15.80;99.90;;;;;;5020992;28;20127;-70
2022/07/29 06:12:59;;;;;;;1.98;0.98;;;15.80;99.90;;;;;;5047335;28;20095;-72
2022/07/29 06:15:26;;;;;;;1.90;1.08;;;15.90;99.90;;;;;;5039907;28;20057;-72
2022/07/29 06:17:52;;;;;;;2.28;0.70;;;15.90;99.90;;;;;;5031815;28;20044;-70
2022/07/29 06:20:18;;;;;;;1.85;0.88;;;16.00;99.90;;;;;;5039267;28;20187;-73
2022/07/29 06:22:43;;;;;;;1.83;0.80;;;16.00;99.90;;;;;;5031574;28;20049;-69
2022/07/29 06:25:09;;;;;;;3.35;1.02;;;16.00;99.90;;;;;;5034523;28;20091;-69
2022/07/29 06:27:35;;;;;;;3.25;1.00;;;16.00;99.90;;;;;;5037317;28;20090;-69
2022/07/29 06:30:01;;;;;;;2.58;1.17;;;16.10;99.90;;;;;;5034513;28;20291;-69
2022/07/29 06:32:27;;;;;;;;;;;16.10;99.90;;;;;;5039902;28;20445;-69
2022/07/29 06:34:52;;;;;;;4.20;1.20;;;16.10;99.90;;;;;;5019847;28;19917;-69
2022/07/29 06:37:18;;;;;;;2.00;0.93;;;16.20;99.90;;;;;;5046641;28;20148;-70
2022/07/29 06:39:44;;;;;;;3.30;0.93;;;16.30;99.90;;;;;;5045158;28;20049;-69
2022/07/29 06:42:10;;;;;;;2.03;1.02;;;16.30;99.90;;;;;;5034089;28;20552;-69
2022/07/29 06:44:35;;;;;;;3.85;1.25;;;16.40;99.90;;;;;;5041375;28;20048;-69
2022/07/29 06:47:01;;;;;;;4.47;1.10;;;16.50;99.90;;;;;;5037991;28;20237;-69
2022/07/29 06:49:27;;;;;;;;;;;16.60;99.90;;;;;;5042039;28;20046;-69
2022/07/29 06:51:54;;;;;;;1.20;0.70;;;16.70;99.90;;;;;;5052549;28;19916;-69
2022/07/29 06:54:20;;;;;;;2.45;0.90;;;16.80;99.90;;;;;;5029249;28;20047;-70
2022/07/29 06:56:46;;;;;;;3.25;1.20;;;16.90;99.90;;;;;;5027517;28;20451;-69
2022/07/29 06:59:13;;;;;;;1.73;0.73;;;17.00;99.90;;;;;;5028712;28;20051;-69
2022/07/29 07:01:40;;;;;;;1.10;0.73;;;17.10;99.90;;;;;;5038078;28;20030;-70
2022/07/29 07:04:08;;;;;;;1.88;1.15;;;17.20;99.90;;;;;;5042266;28;20250;-69
2022/07/29 07:06:34;;;;;;;3.28;1.08;;;17.30;99.90;;;;;;5028187;28;20049;-69
2022/07/29 07:08:59;;;;;;;3.58;0.90;;;17.40;99.90;;;;;;5032410;28;20379;-69
2022/07/29 07:11:25;;;;;;;2.83;0.77;;;17.50;99.90;;;;;;5038399;28;20041;-70
2022/07/29 07:13:51;;;;;;;5.18;1.00;;;17.60;99.90;;;;;;5042577;28;20045;-70
2022/07/29 07:16:16;;;;;;;2.22;1.02;;;17.60;99.90;;;;;;5050518;28;20036;-69
2022/07/29 07:18:44;;;;;;;1.90;0.63;;;17.70;99.90;;;;;;5037004;28;20048;-69
2022/07/29 07:21:10;;;;;;;2.35;1.00;;;17.70;99.90;;;;;;5041654;28;20048;-69
2022/07/29 07:23:36;;;;;;;5.32;1.08;;;17.80;99.90;;;;;;5031992;28;20487;-69
2022/07/29 07:26:02;;;;;;;2.17;0.63;;;17.90;99.90;;;;;;5028919;28;20045;-69
2022/07/29 07:28:28;;;;;;;2.25;0.68;;;18.00;99.90;;;;;;5031754;28;20041;-69
2022/07/29 07:30:54;;;;;;;2.17;0.80;;;18.10;99.90;;;;;;5029733;28;20082;-69
2022/07/29 07:33:19;;;;;;;3.28;1.00;;;18.20;99.90;;;;;;5033785;28;20251;-69
2022/07/29 07:35:45;;;;;;;2.90;0.82;;;18.30;99.90;;;;;;5036600;28;20128;-69
2022/07/29 07:38:11;;;;;;;4.55;1.20;;;18.40;99.90;;;;;;5041161;28;20033;-69
2022/07/29 07:40:37;;;;;;;3.40;1.00;;;18.50;99.90;;;;;;5034819;28;20158;-69
2022/07/29 07:43:02;;;;;;;2.42;1.00;;;18.60;99.90;;;;;;5034455;28;20055;-69
2022/07/29 07:45:28;;;;;;;3.17;0.90;;;18.60;99.90;;;;;;5037588;28;20456;-69
2022/07/29 07:47:54;;;;;;;3.33;0.80;;;18.70;99.90;;;;;;5045351;28;20409;-70
2022/07/29 07:50:20;;;;;;;1.92;0.90;;;18.70;99.90;;;;;;5042774;28;20041;-69
2022/07/29 07:52:51;;;;;;;1.38;0.65;;;18.70;99.90;;;;;;5034162;28;20094;-69
2022/07/29 07:55:17;;;;;;;2.97;0.80;;;18.70;99.90;;;;;;5035084;28;20501;-69
2022/07/29 07:57:43;;;;;;;;;;;18.80;99.90;;;;;;5032824;28;20292;-72
2022/07/29 08:00:09;;;;;;;4.07;0.75;;;18.80;99.90;;;;;;5038490;28;20569;-68
2022/07/29 08:02:35;;;;;;;;;;;18.90;99.90;;;;;;5037997;28;20036;-68
2022/07/29 08:05:00;;;;;;;3.88;1.30;;;18.90;99.90;;;;;;5043000;28;20397;-68
2022/07/29 08:07:26;;;;;;;1.85;1.15;;;18.90;99.90;;;;;;5032910;28;20171;-68
2022/07/29 08:09:52;;;;;;;1.90;0.80;;;18.90;99.90;;;;;;5042204;28;21892;-68
2022/07/29 08:12:17;;;;;;;4.40;2.20;;;19.00;99.90;;;;;;5042209;28;20486;-69
2022/07/29 08:14:43;;;;;;;1.65;0.85;;;18.90;99.90;;;;;;5039542;28;20049;-68
2022/07/29 08:17:09;;;;;;;1.88;0.80;;;18.90;99.90;;;;;;5035267;28;20385;-68
2022/07/29 08:19:34;;;;;;;3.30;1.48;;;18.90;99.90;;;;;;5037982;28;20086;-69
2022/07/29 08:22:00;;;;;;;1.90;0.82;;;19.00;99.90;;;;;;5036022;28;20409;-68
2022/07/29 08:24:45;;;;;;;2.65;1.10;;;18.90;99.90;;;;;;5036248;28;20087;-68
2022/07/29 08:27:12;;;;;;;2.40;1.27;;;19.00;99.90;;;;;;5042044;28;20051;-68
2022/07/29 08:29:37;;;;;;;;;;;18.90;99.90;;;;;;5036448;28;20044;-68
2022/07/29 08:32:04;;;;;;;4.28;1.90;;;18.90;99.90;;;;;;5043232;28;19916;-69
2022/07/29 08:34:30;;;;;;;2.90;0.70;;;18.80;99.90;;;;;;5040411;28;20067;-68
2022/07/29 08:36:56;;;;;;;2.58;1.13;;;18.90;99.90;;;;;;5039931;28;20049;-68
2022/07/29 08:39:22;;;;;;;;;;;18.90;99.90;;;;;;5039787;28;21590;-68
2022/07/29 08:41:48;;;;;;;2.40;1.10;;;18.90;99.90;;;;;;5037035;28;19947;-69
2022/07/29 08:44:18;;;;;;;1.75;0.85;;;18.80;99.90;;;;;;5038585;28;20037;-68
2022/07/29 08:46:45;;;;;;;1.63;1.15;;;18.90;99.90;;;;;;5016439;28;20072;-68
2022/07/29 08:49:10;;;;;;;1.63;0.75;;;18.80;99.90;;;;;;5038678;28;20073;-68
2022/07/29 08:51:38;;;;;;;1.63;0.73;;;18.80;99.90;;;;;;5036756;28;20541;-68
2022/07/29 08:54:05;;;;;;;3.03;1.10;;;18.80;99.90;;;;;;5031048;28;20168;-68
2022/07/29 08:56:30;;;;;;;1.90;1.13;;;18.80;99.90;;;;;;5036791;28;20045;-68
2022/07/29 08:58:58;;;;;;;1.95;1.00;;;18.80;99.90;;;;;;5042262;28;20039;-68
2022/07/29 09:01:27;;;;;;;4.22;1.00;;;18.70;99.90;;;;;;5036218;28;20135;-68
2022/07/29 09:03:56;;;;;;;4.70;1.40;;;18.70;99.90;;;;;;5043114;28;20049;-68
2022/07/29 09:06:25;;;;;;;3.40;0.90;;;18.70;99.90;;;;;;5021011;28;20115;-68
2022/07/29 09:08:51;;;;;;;4.85;1.10;;;18.70;99.90;;;;;;5033550;28;20220;-68
2022/07/29 09:11:17;;;;;;;2.58;1.00;;;18.70;99.90;;;;;;5039680;28;20037;-68
2022/07/29 09:13:43;;;;;;;2.65;0.90;;;18.60;99.90;;;;;;5037171;28;20738;-68
2022/07/29 09:16:09;;;;;;;2.40;1.10;;;18.60;99.90;;;;;;5035984;28;20037;-68
2022/07/29 09:18:39;;;;;;;4.25;1.17;;;18.50;99.90;;;;;;5033115;28;20583;-68
2022/07/29 09:24:12;;;;;;;2.55;1.42;;;18.60;99.90;;;;;;5039310;28;20050;-69
2022/07/29 09:26:43;;;;;;;4.57;0.90;;;18.50;99.90;;;;;;5036436;28;20048;-69
2022/07/29 09:29:18;;;;;;;5.82;1.58;;;18.50;99.90;;;;;;5040379;28;20444;-69
2022/07/29 09:31:49;;;;;;;2.80;0.90;;;18.50;99.90;;;;;;5035562;28;20072;-68
2022/07/29 09:34:26;;;;;;;3.33;0.90;;;18.50;99.90;;;;;;5032797;28;20052;-68
2022/07/29 09:36:53;;;;;;;2.00;0.90;;;18.50;99.90;;;;;;5042120;28;20032;-68
2022/07/29 09:39:29;;;;;;;3.80;1.40;;;18.60;99.90;;;;;;5023803;28;20935;-68
2022/07/29 09:42:00;;;;;;;4.35;1.48;;;18.60;99.90;;;;;;5038171;28;20383;-68
2022/07/29 09:44:26;;;;;;;4.28;1.02;;;18.60;99.90;;;;;;5035042;28;20401;-68
2022/07/29 09:47:06;;;;;;;1.90;0.93;;;18.60;99.90;;;;;;5033756;28;20037;-68
2022/07/29 09:49:36;;;;;;;2.60;1.20;;;18.60;99.90;;;;;;5044720;28;20048;-69
2022/07/29 09:52:09;;;;;;;3.70;1.20;;;18.60;99.90;;;;;;5042290;28;20059;-68
2022/07/29 09:54:38;;;;;;;2.08;1.05;;;18.60;99.90;;;;;;5035457;28;20046;-77
2022/07/29 09:57:06;;;;;;;1.73;1.20;;;18.70;99.90;;;;;;5038772;28;20032;-70
2022/07/29 09:59:33;;;;;;;2.45;1.10;;;18.70;99.90;;;;;;5036291;28;20056;-68
2022/07/29 10:01:59;;;;;;;2.67;1.10;;;18.70;99.90;;;;;;5033996;28;20048;-68
2022/07/29 10:04:42;;;;;;;4.57;1.58;;;18.80;99.90;;;;;;5042027;28;20080;-68
2022/07/29 10:07:09;;;;;;;4.18;1.50;;;18.90;99.90;;;;;;5043316;28;20212;-68
2022/07/29 10:09:35;;;;;;;2.92;1.20;;;19.00;99.90;;;;;;5041028;28;20044;-69
2022/07/29 10:12:14;;;;;;;2.58;1.27;;;19.10;99.90;;;;;;5027278;28;20409;-68
2022/07/29 10:14:41;;;;;;;2.10;1.10;;;19.30;99.90;;;;;;5039676;28;20040;-69
2022/07/29 10:17:07;;;;;;;3.25;1.23;;;19.50;99.90;;;;;;5045000;28;20542;-68
2022/07/29 10:19:34;;;;;;;2.33;1.10;;;19.80;99.90;;;;;;5045103;28;20088;-69
2022/07/29 10:22:02;;;;;;;3.08;1.23;;;20.00;99.90;;;;;;5057861;28;20080;-69
2022/07/29 10:24:30;;;;;;;3.72;1.40;;;20.20;99.90;;;;;;5060427;28;20065;-68
2022/07/29 10:26:57;;;;;;;3.63;1.35;;;20.30;99.90;;;;;;5045676;28;20367;-69
2022/07/29 10:29:24;;;;;;;2.95;1.38;;;20.40;99.90;;;;;;5026262;28;20407;-69
2022/07/29 10:31:53;;;;;;;3.83;1.27;;;20.60;99.90;;;;;;5042601;28;20037;-69
2022/07/29 10:35:06;;;;;;;2.72;1.30;;;20.70;99.90;;;;;;5045428;28;20375;-68
2022/07/29 10:38:05;;;;;;;5.70;1.52;;;20.70;99.90;;;;;;5043500;28;20087;-69
2022/07/29 10:43:41;;;;;;;2.80;1.65;;;20.60;99.90;;;;;;5044384;28;20053;-68
2022/07/29 10:46:07;;;;;;;5.32;1.70;;;20.60;99.90;;;;;;5043316;28;20033;-69
2022/07/29 10:48:33;;;;;;;2.85;1.38;;;20.50;99.90;;;;;;5040825;28;20202;-69
2022/07/29 10:51:05;;;;;;;3.20;1.55;;;20.40;99.90;;;;;;5045335;28;20123;-69
2022/07/29 10:53:52;;;;;;;3.25;1.50;;;20.40;99.90;;;;;;5025772;28;20423;-69
2022/07/29 10:56:35;;;;;;;3.33;1.13;;;20.30;99.90;;;;;;5025647;28;20076;-69
2022/07/29 10:59:20;;;;;;;4.18;1.00;;;20.20;99.90;;;;;;5034373;28;20073;-69
2022/07/29 11:01:47;;;;;;;2.42;1.30;;;20.20;99.90;;;;;;5032125;28;20124;-69
2022/07/29 11:04:13;;;;;;;4.03;1.40;;;20.10;99.90;;;;;;5033797;28;20040;-69
2022/07/29 11:07:04;;;;;;;4.40;1.25;;;20.10;99.90;;;;;;5036644;28;20060;-69
2022/07/29 11:09:30;;;;;;;2.47;1.00;;;20.10;99.90;;;;;;5029609;28;20045;-68
2022/07/29 11:11:56;;;;;;;2.25;1.17;;;20.00;99.90;;;;;;5037656;28;20052;-68
2022/07/29 11:14:58;;;;;;;1.48;0.98;;;20.00;99.90;;;;;;5036216;28;20076;-69
2022/07/29 11:17:24;;;;;;;2.85;1.27;;;20.00;99.90;;;;;;5036149;28;20055;-69
2022/07/29 11:19:50;;;;;;;5.88;1.88;;;20.00;99.90;;;;;;5032355;28;20040;-69
2022/07/29 11:22:33;;;;;;;4.82;1.35;;;20.00;99.90;;;;;;5034769;28;20437;-68
2022/07/29 11:25:18;;;;;;;2.72;1.60;;;20.00;99.90;;;;;;5028816;28;20079;-69
2022/07/29 11:27:47;;;;;;;6.07;1.50;;;20.00;99.90;;;;;;5043347;28;20033;-68
2022/07/29 11:30:13;;;;;;;6.22;1.95;;;20.00;99.90;;;;;;5034244;28;20077;-69
2022/07/29 11:32:43;;;;;;;3.83;1.58;;;20.00;99.90;;;;;;5029966;28;20116;-69
2022/07/29 11:35:21;;;;;;;4.60;1.67;;;20.00;99.90;;;;;;5038617;28;20033;-69
2022/07/29 11:38:22;;;;;;;2.45;1.25;;;20.10;99.90;;;;;;5035552;28;20045;-68
2022/07/29 11:41:26;;;;;;;3.85;1.20;;;20.10;99.90;;;;;;5035934;28;20044;-68
2022/07/29 11:44:00;;;;;;;2.38;1.42;;;20.20;99.90;;;;;;5042419;28;20041;-68
2022/07/29 11:46:46;;;;;;;5.65;1.52;;;20.30;99.90;;;;;;5020361;28;23707;-68
2022/07/29 11:49:13;;;;;;;2.60;1.17;;;20.30;99.90;;;;;;5039348;28;20044;-69
2022/07/29 11:51:39;;;;;;;5.10;1.25;;;20.40;99.90;;;;;;5039610;28;20052;-68
2022/07/29 11:54:05;;;;;;;2.63;1.15;;;20.50;99.90;;;;;;5034544;28;20033;-68
2022/07/29 11:56:31;;;;;;;;;;;20.50;99.90;;;;;;5040344;28;20049;-68
2022/07/29 11:59:04;;;;;;;3.22;1.15;;;20.60;99.90;;;;;;5037770;28;19967;-68
2022/07/29 12:01:31;;;;;;;3.25;1.30;;;20.60;99.90;;;;;;5035004;28;20036;-68
2022/07/29 12:04:07;;;;;;;2.65;1.10;;;20.70;99.90;;;;;;5037605;28;20044;-68
2022/07/29 12:06:34;;;;;;;3.63;1.27;;;20.70;99.90;;;;;;5029920;28;20060;-68
2022/07/29 12:09:00;;;;;;;3.45;1.13;;;20.80;99.90;;;;;;5035367;28;20044;-68
2022/07/29 12:11:26;;;;;;;2.70;1.20;;;20.80;99.90;;;;;;5039449;28;20198;-68
2022/07/29 12:13:52;;;;;;;3.28;1.23;;;20.90;99.90;;;;;;5037865;28;20048;-68
2022/07/29 12:16:20;;;;;;;4.32;1.60;;;20.90;99.90;;;;;;5032015;28;20052;-69
2022/07/29 12:18:59;;;;;;;5.35;1.23;;;21.00;99.90;;;;;;5042549;28;20304;-69
2022/07/29 12:21:25;;;;;;;2.45;1.52;;;21.00;99.90;;;;;;5049362;28;20080;-69
2022/07/29 12:23:54;;;;;;;;;;;21.10;99.90;;;;;;5028650;28;20037;-69
2022/07/29 12:26:20;;;;;;;1.88;1.08;;;21.10;99.90;;;;;;5055289;28;19984;-69
2022/07/29 12:28:46;;;;;;;6.05;2.40;;;21.20;99.90;;;;;;5036712;28;20106;-69
2022/07/29 12:31:15;;;;;;;2.25;1.40;;;21.20;99.90;;;;;;5043407;28;20131;-69
2022/07/29 12:33:42;;;;;;;3.30;1.35;;;21.20;99.90;;;;;;5042012;28;20049;-69
2022/07/29 12:36:08;;;;;;;2.85;1.35;;;21.30;99.90;;;;;;5039105;28;20506;-69
2022/07/29 12:38:35;;;;;;;3.25;1.25;;;21.40;99.90;;;;;;5042000;28;20040;-69
2022/07/29 12:41:01;;;;;;;3.17;1.30;;;21.40;99.90;;;;;;5042069;28;20192;-69
2022/07/29 12:43:27;;;;;;;;;;;21.50;99.90;;;;;;5048215;28;20040;-69
2022/07/29 12:45:54;;;;;;;1.35;0.90;;;21.60;99.90;;;;;;5042501;28;19925;-69
2022/07/29 12:48:41;;;;;;;2.38;1.13;;;21.70;99.90;;;;;;5043591;28;20033;-69
2022/07/29 12:51:08;;;;;;;3.13;1.15;;;21.90;99.90;;;;;;5039234;28;20374;-70
2022/07/29 12:53:35;;;;;;;3.78;1.10;;;22.00;99.90;;;;;;5043752;28;20033;-69
2022/07/29 12:56:01;;;;;;;2.28;1.10;;;22.00;99.90;;;;;;5045324;28;20124;-69
2022/07/29 12:58:30;;;;;;;4.75;1.27;;;22.10;99.90;;;;;;5039745;28;20637;-69
2022/07/29 13:01:08;;;;;;;3.03;1.10;;;22.10;99.90;;;;;;5039819;28;20053;-69
2022/07/29 13:04:03;;;;;;;2.17;0.90;;;22.10;99.90;;;;;;5022461;28;20451;-70
2022/07/29 13:06:40;;;;;;;2.28;1.00;;;22.10;99.90;;;;;;5036679;28;20048;-70